Time;durP1;ratioP1;P1;durP2;ratioP2;P2;SDS_P1;SDS_P2;PMS_P1;PMS_P2;Temp;Humidity;BMP_temperature;BMP_pressure;BME280_temperature;BME280_humidity;BME280_pressure;Samples;Min_cycle;Max_cycle;Signal;HPM_P1;HPM_P2
2023/04/02 00:01:37;;;;;;;10.40;6.93;;;;;;;;;;5020190;28;20224;-70
2023/04/02 00:04:07;;;;;;;13.70;7.30;;;;;;;;;;5021024;28;20281;-72
2023/04/02 00:06:39;;;;;;;9.87;6.17;;;;;;;;;;5021163;28;20525;-70
2023/04/02 00:09:13;;;;;;;12.20;6.90;;;;;;;;;;5020681;28;20194;-70
2023/04/02 00:11:42;;;;;;;10.13;5.90;;;;;;;;;;5015338;28;20185;-70
2023/04/02 00:14:20;;;;;;;10.03;6.93;;;;;;;;;;5009663;28;20236;-70
2023/04/02 00:16:45;;;;;;;10.63;7.17;;;;;;;;;;5022997;28;20205;-70
2023/04/02 00:19:17;;;;;;;12.10;7.77;;;;;;;;;;5024111;28;20248;-70
2023/04/02 00:21:44;;;;;;;12.13;8.07;;;;;;;;;;5020308;28;20220;-70
2023/04/02 00:24:14;;;;;;;12.07;8.13;;;;;;;;;;5016707;28;20248;-70
2023/04/02 00:26:44;;;;;;;11.40;7.40;;;;;;;;;;5021124;28;20617;-70
2023/04/02 00:29:13;;;;;;;10.00;6.83;;;;;;;;;;5014787;28;20230;-70
2023/04/02 00:31:52;;;;;;;11.83;8.33;;;;;;;;;;5020787;28;20222;-73
2023/04/02 00:34:22;;;;;;;10.90;6.93;;;;;;;;;;5024890;28;20215;-70
2023/04/02 00:36:49;;;;;;;10.03;7.20;;;;;;;;;;5022981;28;20221;-71
2023/04/02 00:39:22;;;;;;;13.67;8.30;;;;;;;;;;5015148;28;20669;-70
2023/04/02 00:41:57;;;;;;;13.60;7.20;;;;;;;;;;5015301;28;20248;-70
2023/04/02 00:44:28;;;;;;;10.70;7.83;;;;;;;;;;5015324;28;20247;-70
2023/04/02 00:46:54;;;;;;;11.00;7.27;;;;;;;;;;5021165;28;20202;-71
2023/04/02 00:49:25;;;;;;;14.77;8.07;;;;;;;;;;5018543;28;20749;-71
2023/04/02 00:51:55;;;;;;;12.10;8.13;;;;;;;;;;5025422;28;20190;-71
2023/04/02 00:54:24;;;;;;;13.53;8.83;;;;;;;;;;5025507;28;20194;-70
2023/04/02 00:56:53;;;;;;;18.07;8.43;;;;;;;;;;5020539;28;20240;-70
2023/04/02 00:59:27;;;;;;;12.70;8.47;;;;;;;;;;5027011;28;20186;-70
2023/04/02 01:02:00;;;;;;;12.17;8.87;;;;;;;;;;5023831;28;20227;-70
2023/04/02 01:04:33;;;;;;;12.87;8.67;;;;;;;;;;5023209;28;20197;-70
2023/04/02 01:07:05;;;;;;;11.33;6.37;;;;;;;;;;5018739;28;20190;-70
2023/04/02 01:09:49;;;;;;;10.20;7.23;;;;;;;;;;5015288;28;20244;-69
2023/04/02 01:12:40;;;;;;;12.27;7.37;;;;;;;;;;5028138;28;20194;-70
2023/04/02 01:15:16;;;;;;;11.90;6.20;;;;;;;;;;5027064;28;20249;-69
2023/04/02 01:18:03;;;;;;;11.23;6.90;;;;;;;;;;5041685;28;20263;-69
2023/04/02 01:20:47;;;;;;;12.20;6.80;;;;;;;;;;5021321;28;20190;-70
2023/04/02 01:23:28;;;;;;;12.00;7.10;;;;;;;;;;5014307;28;20198;-70
2023/04/02 01:26:18;;;;;;;15.37;8.00;;;;;;;;;;5025278;28;20281;-70
2023/04/02 01:29:05;;;;;;;8.20;5.57;;;;;;;;;;5020506;28;20281;-71
2023/04/02 01:31:33;;;;;;;11.67;7.30;;;;;;;;;;5020991;28;20697;-70
2023/04/02 01:33:59;;;;;;;8.33;6.80;;;;;;;;;;5020892;28;20346;-70
2023/04/02 01:36:48;;;;;;;11.47;7.33;;;;;;;;;;5022442;28;20249;-70
2023/04/02 01:39:30;;;;;;;12.10;7.90;;;;;;;;;;5028654;28;20202;-70
2023/04/02 01:42:11;;;;;;;15.93;7.97;;;;;;;;;;5019834;28;20240;-70
2023/04/02 01:44:47;;;;;;;9.93;7.80;;;;;;;;;;5029291;28;20224;-70
2023/04/02 01:47:17;;;;;;;10.30;7.73;;;;;;;;;;5023788;28;20289;-70
2023/04/02 01:49:43;;;;;;;12.87;8.47;;;;;;;;;;5022362;28;20492;-70
2023/04/02 01:52:16;;;;;;;12.73;8.00;;;;;;;;;;5025250;28;20217;-70
2023/04/02 01:54:42;;;;;;;10.20;6.93;;;;;;;;;;5026552;28;20208;-70
2023/04/02 01:57:08;;;;;;;11.67;6.97;;;;;;;;;;5033769;28;20218;-71
2023/04/02 01:59:34;;;;;;;15.20;6.70;;;;;;;;;;5013994;28;20500;-69
2023/04/02 02:02:10;;;;;;;10.43;7.37;;;;;;;;;;5025388;28;20301;-69
2023/04/02 02:04:36;;;;;;;12.97;6.90;;;;;;;;;;5039979;28;20225;-70
2023/04/02 02:07:03;;;;;;;14.53;6.67;;;;;;;;;;5027422;28;20229;-70
2023/04/02 02:09:31;;;;;;;11.60;6.40;;;;;;;;;;5019373;28;20285;-71
2023/04/02 02:11:58;;;;;;;8.20;6.00;;;;;;;;;;5016316;28;20269;-72
2023/04/02 02:14:26;;;;;;;13.53;6.30;;;;;;;;;;5020143;28;20332;-71
2023/04/02 02:16:58;;;;;;;12.60;6.80;;;;;;;;;;5025975;28;20585;-71
2023/04/02 02:19:27;;;;;;;12.27;6.97;;;;;;;;;;5023927;28;20560;-70
2023/04/02 02:21:56;;;;;;;12.53;7.27;;;;;;;;;;5027037;28;20217;-70
2023/04/02 02:24:25;;;;;;;11.53;7.40;;;;;;;;;;5027466;28;20209;-70
2023/04/02 02:27:18;;;;;;;10.43;6.77;;;;;;;;;;5028730;28;20198;-70
2023/04/02 02:29:45;;;;;;;10.37;6.80;;;;;;;;;;5018542;28;20698;-72
2023/04/02 02:32:11;;;;;;;10.80;6.73;;;;;;;;;;5026296;28;20256;-71
2023/04/02 02:34:42;;;;;;;13.83;6.70;;;;;;;;;;5018978;28;20195;-71
2023/04/02 02:37:19;;;;;;;10.13;6.37;;;;;;;;;;5025003;28;20202;-70
2023/04/02 02:39:48;;;;;;;14.37;5.93;;;;;;;;;;5024155;28;20194;-70
2023/04/02 02:42:22;;;;;;;8.17;5.20;;;;;;;;;;5031857;28;20287;-71
2023/04/02 02:44:49;;;;;;;13.63;4.27;;;;;;;;;;5014345;28;20194;-70
2023/04/02 02:47:20;;;;;;;9.87;3.77;;;;;;;;;;5026314;28;20280;-71
2023/04/02 02:49:50;;;;;;;9.97;4.70;;;;;;;;;;5010571;28;20206;-71
2023/04/02 02:52:21;;;;;;;8.53;4.00;;;;;;;;;;5025443;28;20728;-70
2023/04/02 02:54:55;;;;;;;7.93;4.00;;;;;;;;;;5028495;28;20194;-71
2023/04/02 02:57:26;;;;;;;9.10;3.90;;;;;;;;;;5029007;28;20260;-71
2023/04/02 02:59:53;;;;;;;9.03;3.70;;;;;;;;;;5019538;28;20193;-69
2023/04/02 03:02:19;;;;;;;5.80;2.60;;;;;;;;;;5025103;28;20560;-70
2023/04/02 03:04:51;;;;;;;4.40;2.43;;;;;;;;;;5026013;28;20194;-70
2023/04/02 03:07:20;;;;;;;5.00;1.97;;;;;;;;;;5022668;28;20510;-72
2023/04/02 03:10:11;;;;;;;5.70;2.27;;;;;;;;;;5027166;28;20550;-69
2023/04/02 03:13:00;;;;;;;7.53;2.70;;;;;;;;;;5021369;28;20194;-71
2023/04/02 03:15:54;;;;;;;6.80;2.17;;;;;;;;;;5003278;28;20202;-70
2023/04/02 03:18:33;;;;;;;4.83;2.40;;;;;;;;;;5029308;28;20205;-69
2023/04/02 03:21:15;;;;;;;6.03;2.10;;;;;;;;;;5023088;28;20205;-71
2023/04/02 03:24:02;;;;;;;6.53;2.00;;;;;;;;;;5023471;28;20665;-70
2023/04/02 03:26:45;;;;;;;9.67;2.60;;;;;;;;;;5023349;28;20194;-70
2023/04/02 03:29:17;;;;;;;4.23;1.87;;;;;;;;;;5017994;28;20713;-70
2023/04/02 03:31:49;;;;;;;5.00;2.23;;;;;;;;;;5026258;28;20638;-71
2023/04/02 03:34:24;;;;;;;6.67;2.10;;;;;;;;;;5011210;28;20197;-70
2023/04/02 03:36:57;;;;;;;3.87;1.77;;;;;;;;;;5024962;28;20296;-71
2023/04/02 03:39:38;;;;;;;4.13;2.00;;;;;;;;;;5022476;28;20531;-70
2023/04/02 03:42:15;;;;;;;3.67;1.60;;;;;;;;;;5021131;28;20198;-70
2023/04/02 03:45:04;;;;;;;4.27;1.50;;;;;;;;;;5020360;28;20332;-70
2023/04/02 03:47:37;;;;;;;4.33;1.27;;;;;;;;;;5019850;28;20272;-70
2023/04/02 03:50:07;;;;;;;4.97;1.50;;;;;;;;;;5015375;28;20717;-70
2023/04/02 03:52:35;;;;;;;4.10;1.20;;;;;;;;;;5020959;28;20207;-70
2023/04/02 03:55:09;;;;;;;4.30;1.63;;;;;;;;;;5014681;28;20638;-70
2023/04/02 03:57:41;;;;;;;3.80;1.40;;;;;;;;;;5028049;28;20232;-69
2023/04/02 04:00:21;;;;;;;7.13;1.67;;;;;;;;;;5017231;28;20218;-70
2023/04/02 04:02:53;;;;;;;8.17;1.40;;;;;;;;;;5015177;28;20198;-69
2023/04/02 04:05:32;;;;;;;7.23;1.07;;;;;;;;;;5014558;28;20537;-69
2023/04/02 04:08:07;;;;;;;11.60;2.07;;;;;;;;;;5026331;28;20681;-70
2023/04/02 04:10:34;;;;;;;5.03;1.43;;;;;;;;;;5031163;28;20557;-72
2023/04/02 04:13:11;;;;;;;7.20;1.73;;;;;;;;;;5020667;28;20191;-69
2023/04/02 04:15:46;;;;;;;3.73;1.27;;;;;;;;;;5024191;28;20542;-69
2023/04/02 04:18:37;;;;;;;6.17;1.60;;;;;;;;;;5028002;28;20621;-70
2023/04/02 04:21:14;;;;;;;2.50;1.20;;;;;;;;;;5021277;28;20187;-70
2023/04/02 04:23:49;;;;;;;9.23;1.23;;;;;;;;;;5027980;28;20194;-70
2023/04/02 04:26:48;;;;;;;9.13;1.70;;;;;;;;;;5008596;28;20182;-69
2023/04/02 04:29:49;;;;;;;5.17;2.03;;;;;;;;;;5017284;28;20311;-69
2023/04/02 04:32:32;;;;;;;7.80;1.70;;;;;;;;;;5019995;28;20271;-70
2023/04/02 04:35:16;;;;;;;11.57;1.83;;;;;;;;;;5013890;28;20626;-69
2023/04/02 04:37:48;;;;;;;3.53;1.47;;;;;;;;;;5023828;28;20210;-69
2023/04/02 04:40:25;;;;;;;4.77;1.50;;;;;;;;;;5030409;28;20247;-71
2023/04/02 04:42:56;;;;;;;6.50;1.40;;;;;;;;;;5026852;28;20545;-70
2023/04/02 04:45:49;;;;;;;6.10;1.30;;;;;;;;;;5037110;28;20190;-73
2023/04/02 04:48:34;;;;;;;5.63;1.40;;;;;;;;;;5019977;28;20225;-70
2023/04/02 04:51:02;;;;;;;6.73;1.80;;;;;;;;;;5024939;28;20708;-71
2023/04/02 04:53:29;;;;;;;6.43;1.47;;;;;;;;;;5024530;28;20270;-70
2023/04/02 04:56:03;;;;;;;7.87;1.80;;;;;;;;;;5021928;28;20241;-70
2023/04/02 04:58:39;;;;;;;4.23;1.63;;;;;;;;;;5021528;28;20249;-70
2023/04/02 05:01:20;;;;;;;5.37;1.73;;;;;;;;;;5019082;28;20207;-70
2023/04/02 05:04:00;;;;;;;6.27;1.63;;;;;;;;;;5028040;28;20190;-71
2023/04/02 05:06:54;;;;;;;4.80;1.27;;;;;;;;;;5025690;28;20182;-70
2023/04/02 05:09:32;;;;;;;3.13;1.30;;;;;;;;;;5029113;28;20202;-71
2023/04/02 05:12:09;;;;;;;5.37;1.63;;;;;;;;;;5022623;28;20344;-70
2023/04/02 05:14:36;;;;;;;7.53;1.97;;;;;;;;;;5015709;28;20198;-71
2023/04/02 05:17:07;;;;;;;6.37;2.00;;;;;;;;;;5020727;28;20206;-71
2023/04/02 05:20:01;;;;;;;7.20;2.10;;;;;;;;;;5018221;28;20207;-70
2023/04/02 05:22:38;;;;;;;5.43;2.07;;;;;;;;;;5013456;28;20191;-70
2023/04/02 05:25:15;;;;;;;5.33;2.07;;;;;;;;;;5022259;28;20186;-70
2023/04/02 05:28:16;;;;;;;6.40;3.03;;;;;;;;;;5022921;28;20542;-70
2023/04/02 05:31:00;;;;;;;5.43;2.20;;;;;;;;;;5015715;28;20226;-71
2023/04/02 05:33:31;;;;;;;10.13;2.23;;;;;;;;;;5025434;28;20191;-70
2023/04/02 05:36:04;;;;;;;6.40;2.93;;;;;;;;;;5016016;28;20222;-70
2023/04/02 05:38:34;;;;;;;4.70;2.40;;;;;;;;;;5025618;28;20240;-70
2023/04/02 05:41:06;;;;;;;9.27;3.47;;;;;;;;;;5024657;28;20186;-71
2023/04/02 05:43:34;;;;;;;7.27;3.20;;;;;;;;;;5021153;28;20248;-71
2023/04/02 05:46:06;;;;;;;5.77;2.57;;;;;;;;;;5017181;28;20189;-69
2023/04/02 05:48:39;;;;;;;12.37;2.97;;;;;;;;;;5017729;28;20601;-68
2023/04/02 05:51:07;;;;;;;5.93;2.83;;;;;;;;;;5030990;28;20220;-70
2023/04/02 05:53:45;;;;;;;4.97;3.17;;;;;;;;;;5029068;28;20193;-70
2023/04/02 05:56:15;;;;;;;4.50;2.97;;;;;;;;;;5019582;28;20279;-70
2023/04/02 05:58:48;;;;;;;7.00;3.47;;;;;;;;;;5021876;28;20249;-71
2023/04/02 06:01:41;;;;;;;4.87;3.20;;;;;;;;;;5027586;28;20224;-70
2023/04/02 06:04:45;;;;;;;5.83;2.67;;;;;;;;;;5029042;28;20186;-71
2023/04/02 06:07:20;;;;;;;6.63;3.07;;;;;;;;;;5010367;28;20277;-69
2023/04/02 06:09:52;;;;;;;11.83;3.27;;;;;;;;;;5014977;28;20193;-71
2023/04/02 06:12:24;;;;;;;8.87;3.23;;;;;;;;;;5028291;28;20392;-70
2023/04/02 06:14:50;;;;;;;8.77;3.30;;;;;;;;;;5028975;28;20612;-69
2023/04/02 06:17:17;;;;;;;7.90;3.67;;;;;;;;;;5026148;28;20214;-70
2023/04/02 06:19:44;;;;;;;6.23;3.00;;;;;;;;;;5022428;28;20186;-69
2023/04/02 06:22:30;;;;;;;7.97;2.97;;;;;;;;;;5022181;28;20205;-70
2023/04/02 06:25:16;;;;;;;10.33;4.00;;;;;;;;;;5028149;28;20234;-70
2023/04/02 06:27:44;;;;;;;4.13;2.87;;;;;;;;;;5022433;28;20182;-70
2023/04/02 06:30:23;;;;;;;7.33;3.40;;;;;;;;;;5015583;28;20721;-71
2023/04/02 06:32:48;;;;;;;6.50;3.40;;;;;;;;;;5024147;28;20227;-70
2023/04/02 06:35:14;;;;;;;7.33;2.80;;;;;;;;;;5027102;28;20697;-70
2023/04/02 06:37:44;;;;;;;7.67;3.00;;;;;;;;;;5029456;28;20205;-70
2023/04/02 06:40:30;;;;;;;4.93;2.37;;;;;;;;;;5019068;28;20213;-71
2023/04/02 06:42:58;;;;;;;4.77;1.80;;;;;;;;;;4321990;28;10000731;-70
2023/04/02 06:45:33;;;;;;;5.00;1.97;;;;;;;;;;5021409;28;20197;-69
2023/04/02 06:48:01;;;;;;;6.97;2.93;;;;;;;;;;5023939;28;20197;-70
2023/04/02 06:50:49;;;;;;;6.03;2.30;;;;;;;;;;5019111;28;20209;-70
2023/04/02 06:53:31;;;;;;;4.50;2.23;;;;;;;;;;5020929;28;20225;-70
2023/04/02 06:56:03;;;;;;;6.47;3.00;;;;;;;;;;5022849;28;20210;-70
2023/04/02 06:58:28;;;;;;;7.97;2.80;;;;;;;;;;5017662;28;20200;-70
2023/04/02 07:00:54;;;;;;;9.13;2.50;;;;;;;;;;5024478;28;20494;-70
2023/04/02 07:03:26;;;;;;;6.87;2.40;;;;;;;;;;5019836;28;20190;-71
2023/04/02 07:05:52;;;;;;;7.57;2.93;;;;;;;;;;5021025;28;20626;-70
2023/04/02 07:08:18;;;;;;;5.63;2.70;;;;;;;;;;5021594;28;20191;-69
2023/04/02 07:10:43;;;;;;;7.20;2.17;;;;;;;;;;5012305;28;20269;-70
2023/04/02 07:13:21;;;;;;;6.40;2.30;;;;;;;;;;5018727;28;20244;-71
2023/04/02 07:15:49;;;;;;;5.90;2.07;;;;;;;;;;5024655;28;20597;-69
2023/04/02 07:18:28;;;;;;;7.97;2.70;;;;;;;;;;5019732;28;20277;-70
2023/04/02 07:20:54;;;;;;;5.17;1.70;;;;;;;;;;5024797;28;20189;-70
2023/04/02 07:23:20;;;;;;;8.97;1.80;;;;;;;;;;5029858;28;20282;-70
2023/04/02 07:25:50;;;;;;;3.97;1.37;;;;;;;;;;5024644;28;20198;-69
2023/04/02 07:28:15;;;;;;;5.23;1.67;;;;;;;;;;5019186;28;20285;-69
2023/04/02 07:30:41;;;;;;;3.23;1.60;;;;;;;;;;5022841;28;20309;-69
2023/04/02 07:33:08;;;;;;;6.67;1.50;;;;;;;;;;5022261;28;20204;-69
2023/04/02 07:35:34;;;;;;;3.37;1.53;;;;;;;;;;5024628;28;20205;-69
2023/04/02 07:38:00;;;;;;;8.17;2.20;;;;;;;;;;5019027;28;20202;-71
2023/04/02 07:40:25;;;;;;;8.67;2.80;;;;;;;;;;5012834;28;20194;-69
2023/04/02 07:42:50;;;;;;;7.93;2.50;;;;;;;;;;5024788;28;20925;-70
2023/04/02 07:45:16;;;;;;;3.97;2.00;;;;;;;;;;5013066;28;20245;-69
2023/04/02 07:47:42;;;;;;;6.03;3.40;;;;;;;;;;5020042;28;20193;-70
2023/04/02 07:50:08;;;;;;;6.33;2.97;;;;;;;;;;5013988;28;20602;-70
2023/04/02 07:52:38;;;;;;;5.53;2.23;;;;;;;;;;5038866;28;20272;-71
2023/04/02 07:55:04;;;;;;;6.80;2.37;;;;;;;;;;5012136;28;20267;-71
2023/04/02 07:57:29;;;;;;;9.40;2.50;;;;;;;;;;5011467;28;20493;-69
2023/04/02 07:59:55;;;;;;;3.43;2.10;;;;;;;;;;5016242;28;20264;-69
2023/04/02 08:02:21;;;;;;;3.50;1.77;;;;;;;;;;5017809;28;20190;-69
2023/04/02 08:04:50;;;;;;;2.87;1.30;;;;;;;;;;5021592;28;20575;-70
2023/04/02 08:07:17;;;;;;;4.87;1.90;;;;;;;;;;5019896;28;20190;-70
2023/04/02 08:09:43;;;;;;;3.90;2.17;;;;;;;;;;5019163;28;20270;-70
2023/04/02 08:12:12;;;;;;;9.90;2.37;;;;;;;;;;5021990;28;20277;-69
2023/04/02 08:14:37;;;;;;;4.23;1.73;;;;;;;;;;5020982;28;20259;-70
2023/04/02 08:17:02;;;;;;;5.07;2.20;;;;;;;;;;5016745;28;20681;-69
2023/04/02 08:19:28;;;;;;;3.60;1.70;;;;;;;;;;5029902;28;20546;-69
2023/04/02 08:21:53;;;;;;;4.93;1.60;;;;;;;;;;5024080;28;20503;-71
2023/04/02 08:24:20;;;;;;;5.40;1.43;;;;;;;;;;5024491;28;20209;-69
2023/04/02 08:26:47;;;;;;;4.47;1.30;;;;;;;;;;5032626;28;20327;-70
2023/04/02 08:29:13;;;;;;;4.33;1.53;;;;;;;;;;5031370;28;20326;-70
2023/04/02 08:31:38;;;;;;;5.37;1.77;;;;;;;;;;5031931;28;20183;-69
2023/04/02 08:34:04;;;;;;;6.97;2.37;;;;;;;;;;5039148;28;20189;-70
2023/04/02 08:36:34;;;;;;;5.97;1.93;;;;;;;;;;5034771;28;20241;-70
2023/04/02 08:38:59;;;;;;;3.57;1.70;;;;;;;;;;5018958;28;20223;-69
2023/04/02 08:41:26;;;;;;;5.20;1.47;;;;;;;;;;5038239;28;20211;-69
2023/04/02 08:44:25;;;;;;;4.40;1.33;;;;;;;;;;5029804;28;20311;-70
2023/04/02 08:46:58;;;;;;;2.43;1.07;;;;;;;;;;5028566;28;20190;-70
2023/04/02 08:49:48;;;;;;;7.10;1.17;;;;;;;;;;5026132;28;20186;-70
2023/04/02 08:52:25;;;;;;;3.00;1.30;;;;;;;;;;5027901;28;20193;-72
2023/04/02 08:54:52;;;;;;;5.13;1.33;;;;;;;;;;5024750;28;20197;-69
2023/04/02 08:57:40;;;;;;;5.30;1.30;;;;;;;;;;5012433;28;20199;-71
2023/04/02 09:00:24;;;;;;;2.93;1.50;;;;;;;;;;5029932;28;20590;-70
2023/04/02 09:02:56;;;;;;;5.27;1.30;;;;;;;;;;5032187;28;20192;-69
2023/04/02 09:05:30;;;;;;;3.13;0.97;;;;;;;;;;5030155;28;20274;-70
2023/04/02 09:07:58;;;;;;;3.93;1.20;;;;;;;;;;5020055;28;20200;-69
2023/04/02 09:10:41;;;;;;;6.10;1.63;;;;;;;;;;5023349;28;20252;-70
2023/04/02 09:13:16;;;;;;;4.37;1.40;;;;;;;;;;5035062;28;20644;-69
2023/04/02 09:15:41;;;;;;;4.40;1.30;;;;;;;;;;5015971;28;20560;-69
2023/04/02 09:18:15;;;;;;;7.03;1.20;;;;;;;;;;5021758;28;20197;-69
2023/04/02 09:20:41;;;;;;;4.50;1.13;;;;;;;;;;5017388;28;20220;-69
2023/04/02 09:23:24;;;;;;;1.97;1.20;;;;;;;;;;5016681;28;20229;-69
2023/04/02 09:25:51;;;;;;;5.03;1.40;;;;;;;;;;5014095;28;20198;-70
2023/04/02 09:28:19;;;;;;;4.23;1.40;;;;;;;;;;5028728;28;20189;-70
2023/04/02 09:31:18;;;;;;;3.83;1.43;;;;;;;;;;5022722;28;20226;-69
2023/04/02 09:33:47;;;;;;;5.47;1.43;;;;;;;;;;5030661;28;20213;-71
2023/04/02 09:36:36;;;;;;;4.10;1.63;;;;;;;;;;5019734;28;20209;-69
2023/04/02 09:39:06;;;;;;;6.00;1.40;;;;;;;;;;5027960;28;20190;-68
2023/04/02 09:41:34;;;;;;;3.97;1.30;;;;;;;;;;5010675;28;20198;-69
2023/04/02 09:44:20;;;;;;;5.60;1.10;;;;;;;;;;5016053;28;20198;-69
2023/04/02 09:46:59;;;;;;;4.77;1.50;;;;;;;;;;5022621;28;20186;-70
2023/04/02 09:49:30;;;;;;;4.03;1.00;;;;;;;;;;5019167;28;20629;-70
2023/04/02 09:52:05;;;;;;;4.33;1.37;;;;;;;;;;5018204;28;20602;-70
2023/04/02 09:54:30;;;;;;;2.70;0.90;;;;;;;;;;5016051;28;20197;-69
2023/04/02 09:57:01;;;;;;;3.90;1.03;;;;;;;;;;5027492;28;20209;-70
2023/04/02 09:59:27;;;;;;;3.70;0.90;;;;;;;;;;5019670;28;20194;-70
2023/04/02 10:01:52;;;;;;;4.30;1.20;;;;;;;;;;5021200;28;20705;-69
2023/04/02 10:04:42;;;;;;;4.83;1.20;;;;;;;;;;5020359;28;20190;-69
2023/04/02 10:07:29;;;;;;;1.77;0.77;;;;;;;;;;5017432;28;20304;-70
2023/04/02 10:10:14;;;;;;;7.20;1.23;;;;;;;;;;5022374;28;20190;-71
2023/04/02 10:12:41;;;;;;;4.03;1.40;;;;;;;;;;5025547;28;20206;-70
2023/04/02 10:15:20;;;;;;;3.03;0.97;;;;;;;;;;5013897;28;20194;-70
2023/04/02 10:17:54;;;;;;;3.30;1.20;;;;;;;;;;5022703;28;20221;-70
2023/04/02 10:20:25;;;;;;;5.67;1.10;;;;;;;;;;5027098;28;20235;-70
2023/04/02 10:22:50;;;;;;;6.23;1.30;;;;;;;;;;5019968;28;20244;-69
2023/04/02 10:25:19;;;;;;;4.07;1.17;;;;;;;;;;5025691;28;20198;-70
2023/04/02 10:28:12;;;;;;;6.00;1.10;;;;;;;;;;5024862;28;20740;-70
2023/04/02 10:31:07;;;;;;;6.20;1.13;;;;;;;;;;5020432;28;20641;-70
2023/04/02 10:33:36;;;;;;;4.83;1.10;;;;;;;;;;5022915;28;20191;-70
2023/04/02 10:36:37;;;;;;;4.60;0.97;;;;;;;;;;5021290;28;20221;-68
2023/04/02 10:39:16;;;;;;;5.67;1.87;;;;;;;;;;5018369;28;20201;-69
2023/04/02 10:42:04;;;;;;;4.97;0.97;;;;;;;;;;5018265;28;20213;-69
2023/04/02 10:44:38;;;;;;;11.97;2.13;;;;;;;;;;5017300;28;20635;-70
2023/04/02 10:47:20;;;;;;;7.03;1.30;;;;;;;;;;5023676;28;20217;-70
2023/04/02 10:49:54;;;;;;;6.63;2.40;;;;;;;;;;5025006;28;20198;-70
2023/04/02 10:52:27;;;;;;;7.47;1.17;;;;;;;;;;5004103;28;20244;-69
2023/04/02 10:55:01;;;;;;;4.03;1.00;;;;;;;;;;5024349;28;20190;-69
2023/04/02 10:57:37;;;;;;;2.17;0.70;;;;;;;;;;5026060;28;20219;-70
2023/04/02 11:00:15;;;;;;;4.00;1.13;;;;;;;;;;5021746;28;20252;-68
2023/04/02 11:03:00;;;;;;;4.17;1.43;;;;;;;;;;5036098;28;20284;-69
2023/04/02 11:05:29;;;;;;;4.87;1.30;;;;;;;;;;5015214;28;20577;-69
2023/04/02 11:08:06;;;;;;;3.75;1.10;;;;;;;;;;5022491;28;20578;-69
2023/04/02 11:10:36;;;;;;;4.60;0.90;;;;;;;;;;5022979;28;20190;-68
2023/04/02 11:13:13;;;;;;;4.30;1.05;;;;;;;;;;5025201;28;20266;-69
2023/04/02 11:15:39;;;;;;;5.63;1.42;;;;;;;;;;5021917;28;20189;-70
2023/04/02 11:18:05;;;;;;;5.15;0.93;;;;;;;;;;5017810;28;20700;-70
2023/04/02 11:20:48;;;;;;;3.67;1.23;;;;;;;;;;5021868;28;20460;-69
2023/04/02 11:23:18;;;;;;;2.37;0.90;;;;;;;;;;5014787;28;20217;-70
2023/04/02 11:25:44;;;;;;;4.55;0.98;;;;;;;;;;5022872;28;20194;-69
2023/04/02 11:28:30;;;;;;;4.05;1.25;;;;;;;;;;5015899;28;20260;-71
2023/04/02 11:30:56;;;;;;;3.95;1.25;;;;;;;;;;5024617;28;20838;-69
2023/04/02 11:33:32;;;;;;;3.80;1.00;;;;;;;;;;5023215;28;20198;-71
2023/04/02 11:35:57;;;;;;;3.90;1.00;;;;;;;;;;5020083;28;20218;-71
2023/04/02 11:38:23;;;;;;;2.57;1.00;;;;;;;;;;5003954;28;20218;-71
2023/04/02 11:40:51;;;;;;;4.40;1.20;;;;;;;;;;5018820;28;20198;-70
2023/04/02 11:43:32;;;;;;;6.55;1.05;;;;;;;;;;5023265;28;20201;-70
2023/04/02 11:46:00;;;;;;;5.32;1.05;;;;;;;;;;5022730;28;20190;-69
2023/04/02 11:48:28;;;;;;;2.70;1.00;;;;;;;;;;5015607;28;20260;-70
2023/04/02 11:50:54;;;;;;;4.17;1.10;;;;;;;;;;5016127;28;20301;-69
2023/04/02 11:53:33;;;;;;;7.60;1.38;;;;;;;;;;5024417;28;20658;-69
2023/04/02 11:56:07;;;;;;;4.07;1.40;;;;;;;;;;5023352;28;20201;-69
2023/04/02 11:58:49;;;;;;;2.20;1.00;;;;;;;;;;5021481;28;20194;-69
2023/04/02 12:01:32;;;;;;;4.63;1.20;;;;;;;;;;5009276;28;20530;-69
2023/04/02 12:04:42;;;;;;;6.63;1.33;;;;;;;;;;5015483;28;20205;-70
2023/04/02 12:07:35;;;;;;;1.50;1.08;;;;;;;;;;4993802;28;20267;-69
2023/04/02 12:10:17;;;;;;;3.03;1.30;;;;;;;;;;5003428;28;20187;-71
2023/04/02 12:12:42;;;;;;;3.28;1.05;;;;;;;;;;5019766;28;20194;-71
2023/04/02 12:15:27;;;;;;;2.78;1.20;;;;;;;;;;5026803;28;20243;-69
2023/04/02 12:18:02;;;;;;;3.60;0.70;;;;;;;;;;5009716;28;20692;-70
2023/04/02 12:20:29;;;;;;;4.65;1.00;;;;;;;;;;5023672;28;20247;-69
2023/04/02 12:22:56;;;;;;;2.58;0.93;;;;;;;;;;5018537;28;20560;-69
2023/04/02 12:25:33;;;;;;;4.07;1.10;;;;;;;;;;5028308;28;20307;-69
2023/04/02 12:28:13;;;;;;;3.40;1.20;;;;;;;;;;5029829;28;20182;-69
2023/04/02 12:30:39;;;;;;;4.78;1.30;;;;;;;;;;5026915;28;20233;-69
2023/04/02 12:33:27;;;;;;;6.40;1.15;;;;;;;;;;5014762;28;20195;-69
2023/04/02 12:35:58;;;;;;;3.38;0.90;;;;;;;;;;5017581;28;20190;-69
2023/04/02 12:38:28;;;;;;;2.42;1.00;;;;;;;;;;5013179;28;20269;-70
2023/04/02 12:40:56;;;;;;;3.65;1.20;;;;;;;;;;5021076;28;20205;-68
2023/04/02 12:43:23;;;;;;;3.10;1.00;;;;;;;;;;5021315;28;20218;-68
2023/04/02 12:46:07;;;;;;;4.95;1.38;;;;;;;;;;5027157;28;20221;-69
2023/04/02 12:48:34;;;;;;;4.90;1.30;;;;;;;;;;5018676;28;20272;-69
2023/04/02 12:51:00;;;;;;;3.60;1.35;;;;;;;;;;5019745;28;20594;-69
2023/04/02 12:53:31;;;;;;;4.40;1.08;;;;;;;;;;5011472;28;20595;-69
2023/04/02 12:55:57;;;;;;;5.85;1.08;;;;;;;;;;5029523;28;20531;-69
2023/04/02 12:58:38;;;;;;;2.97;1.17;;;;;;;;;;5029525;28;20188;-70
2023/04/02 13:01:18;;;;;;;3.22;0.73;;;;;;;;;;5029985;28;20296;-69
2023/04/02 13:04:02;;;;;;;2.55;1.20;;;;;;;;;;5018911;28;20186;-70
2023/04/02 13:06:29;;;;;;;1.85;0.95;;;;;;;;;;5030589;28;20190;-69
2023/04/02 13:08:55;;;;;;;4.82;1.00;;;;;;;;;;5021808;28;20235;-69
2023/04/02 13:11:22;;;;;;;3.35;0.95;;;;;;;;;;5030485;28;20202;-69
2023/04/02 13:13:48;;;;;;;2.75;0.85;;;;;;;;;;5031746;28;20618;-69
2023/04/02 13:16:14;;;;;;;0.85;0.52;;;;;;;;;;5022940;28;20210;-74
2023/04/02 13:18:40;;;;;;;3.17;0.80;;;;;;;;;;5025969;28;20201;-70
2023/04/02 13:21:25;;;;;;;2.55;0.93;;;;;;;;;;5030595;28;20225;-69
2023/04/02 13:23:50;;;;;;;4.88;0.95;;;;;;;;;;5034308;28;20200;-69
2023/04/02 13:26:17;;;;;;;3.20;0.80;;;;;;;;;;5030877;28;20190;-70
2023/04/02 13:29:03;;;;;;;4.30;0.98;;;;;;;;;;5031118;28;20308;-69
2023/04/02 13:31:31;;;;;;;3.45;0.98;;;;;;;;;;5016306;28;20565;-70
2023/04/02 13:33:57;;;;;;;8.05;1.30;;;;;;;;;;5016701;28;20233;-69
2023/04/02 13:36:22;;;;;;;3.65;0.93;;;;;;;;;;5025116;28;20211;-70
2023/04/02 13:38:47;;;;;;;4.15;1.25;;;;;;;;;;5019565;28;20196;-69
2023/04/02 13:41:30;;;;;;;2.67;1.15;;;;;;;;;;5029398;28;20694;-69
2023/04/02 13:44:01;;;;;;;3.08;0.90;;;;;;;;;;5023774;28;20209;-69
2023/04/02 13:46:29;;;;;;;2.53;0.73;;;;;;;;;;5019986;28;20202;-69
2023/04/02 13:48:55;;;;;;;4.65;1.10;;;;;;;;;;5011286;28;20213;-69
2023/04/02 13:51:25;;;;;;;1.88;1.10;;;;;;;;;;5028037;28;20688;-69
2023/04/02 13:53:56;;;;;;;2.95;0.90;;;;;;;;;;5014271;28;20265;-69
2023/04/02 13:56:23;;;;;;;2.92;0.90;;;;;;;;;;5027158;28;20583;-68
2023/04/02 13:58:50;;;;;;;4.70;0.98;;;;;;;;;;5027551;28;20209;-68
2023/04/02 14:01:17;;;;;;;3.00;0.85;;;;;;;;;;5022042;28;20306;-68
2023/04/02 14:03:44;;;;;;;2.30;0.77;;;;;;;;;;5026977;28;20239;-68
2023/04/02 14:06:41;;;;;;;2.78;0.93;;;;;;;;;;5019878;28;20650;-69
2023/04/02 14:09:23;;;;;;;3.42;1.02;;;;;;;;;;5020508;28;20273;-70
2023/04/02 14:12:04;;;;;;;6.45;1.00;;;;;;;;;;5013245;28;20182;-68
2023/04/02 14:14:35;;;;;;;3.70;1.00;;;;;;;;;;5026555;28;20216;-68
2023/04/02 14:17:25;;;;;;;2.88;0.88;;;;;;;;;;5019085;28;20289;-69
2023/04/02 14:19:53;;;;;;;2.20;0.68;;;;;;;;;;5025016;28;20194;-71
2023/04/02 14:22:38;;;;;;;4.15;0.95;;;;;;;;;;5021648;28;20224;-71
2023/04/02 14:25:25;;;;;;;5.47;1.33;;;;;;;;;;5015279;28;20190;-69
2023/04/02 14:28:36;;;;;;;3.88;1.00;;;;;;;;;;5011179;28;20577;-70
2023/04/02 14:31:08;;;;;;;3.90;1.02;;;;;;;;;;5021707;28;20198;-69
2023/04/02 14:33:59;;;;;;;1.98;0.68;;;;;;;;;;5024216;28;20190;-71
2023/04/02 14:36:56;;;;;;;2.30;0.85;;;;;;;;;;5023698;28;20572;-70
2023/04/02 14:39:43;;;;;;;2.05;0.80;;;;;;;;;;5027305;28;20559;-67
2023/04/02 14:42:26;;;;;;;3.75;0.77;;;;;;;;;;5022362;28;20279;-68
2023/04/02 14:45:06;;;;;;;2.28;0.80;;;;;;;;;;5028223;28;20243;-69
2023/04/02 14:47:54;;;;;;;2.28;0.70;;;;;;;;;;5020169;28;20280;-69
2023/04/02 14:50:31;;;;;;;2.03;0.70;;;;;;;;;;5021932;28;20205;-69
2023/04/02 14:53:02;;;;;;;2.38;0.70;;;;;;;;;;5022135;28;20205;-69
2023/04/02 14:55:42;;;;;;;2.47;0.65;;;;;;;;;;5015598;28;20209;-69
2023/04/02 14:58:31;;;;;;;4.22;0.88;;;;;;;;;;5020178;28;20211;-69
2023/04/02 15:01:14;;;;;;;3.53;0.80;;;;;;;;;;5024010;28;20233;-70
2023/04/02 15:04:13;;;;;;;2.70;0.70;;;;;;;;;;5016801;28;20665;-69
2023/04/02 15:06:48;;;;;;;3.75;0.88;;;;;;;;;;5012067;28;20321;-68
2023/04/02 15:09:37;;;;;;;3.40;0.73;;;;;;;;;;5016340;28;20269;-68
2023/04/02 15:12:15;;;;;;;4.53;1.13;;;;;;;;;;5015541;28;20615;-69
2023/04/02 15:14:47;;;;;;;2.42;0.75;;;;;;;;;;5022647;28;20202;-69
2023/04/02 15:17:13;;;;;;;1.85;0.70;;;;;;;;;;5027857;28;20292;-69
2023/04/02 15:19:38;;;;;;;2.65;0.77;;;;;;;;;;5027452;28;20576;-69
2023/04/02 15:22:27;;;;;;;2.65;1.02;;;;;;;;;;5025236;28;20190;-69
2023/04/02 15:25:25;;;;;;;1.20;0.73;;;;;;;;;;5008392;28;20191;-68